createdAt,value
2018-04-23T00:00:44.671Z,13.54
2018-04-23T00:01:44.609Z,13.51
2018-04-23T00:02:44.695Z,13.49
2018-04-23T00:03:44.672Z,13.47
2018-04-23T00:04:44.610Z,13.45
2018-04-23T00:05:44.604Z,13.46
2018-04-23T00:06:44.679Z,13.47
2018-04-23T00:07:44.608Z,13.50
2018-04-23T00:08:44.672Z,13.49
2018-04-23T00:09:44.608Z,13.46
2018-04-23T00:10:44.616Z,13.46
2018-04-23T00:11:44.609Z,13.46
2018-04-23T00:12:44.611Z,13.42
2018-04-23T00:13:44.678Z,13.40
2018-04-23T00:14:44.682Z,13.40
2018-04-23T00:15:44.683Z,13.45
2018-04-23T00:16:44.684Z,13.49
2018-04-23T00:17:44.685Z,13.50
2018-04-23T00:18:44.684Z,13.47
2018-04-23T00:19:44.614Z,13.43
2018-04-23T00:20:44.683Z,13.40
2018-04-23T00:21:44.613Z,13.40
2018-04-23T00:22:44.697Z,13.38
2018-04-23T00:23:44.620Z,13.34
2018-04-23T00:24:44.687Z,13.31
2018-04-23T00:25:44.727Z,13.29
2018-04-23T00:26:44.714Z,13.28
2018-04-23T00:27:44.707Z,13.24
2018-04-23T00:28:44.717Z,13.18
2018-04-23T00:29:44.612Z,13.16
2018-04-23T00:30:44.660Z,13.14
2018-04-23T00:31:44.727Z,13.14
2018-04-23T00:32:44.671Z,13.14
2018-04-23T00:33:44.690Z,13.14
2018-04-23T00:34:44.699Z,13.10
2018-04-23T00:35:44.596Z,13.05
2018-04-23T00:36:44.660Z,12.99
2018-04-23T00:37:44.717Z,12.91
2018-04-23T00:38:44.693Z,12.84
2018-04-23T00:39:44.695Z,12.80
2018-04-23T00:40:44.700Z,12.80
2018-04-23T00:41:44.623Z,12.75
2018-04-23T00:42:44.602Z,12.69
2018-04-23T00:43:44.621Z,12.64
2018-04-23T00:44:44.635Z,12.64
2018-04-23T00:45:44.730Z,12.65
2018-04-23T00:46:44.674Z,12.64
2018-04-23T00:47:44.701Z,12.65
2018-04-23T00:48:44.679Z,12.62
2018-04-23T00:49:44.713Z,12.60
2018-04-23T00:50:44.637Z,12.54
2018-04-23T00:51:44.643Z,12.48
2018-04-23T00:52:44.701Z,12.40
2018-04-23T00:53:44.747Z,12.33
2018-04-23T00:54:44.579Z,12.28
2018-04-23T00:55:44.696Z,12.20
2018-04-23T00:56:44.576Z,12.16
2018-04-23T00:57:44.667Z,12.16
2018-04-23T00:58:44.574Z,12.25
2018-04-23T00:59:44.705Z,12.32
2018-04-23T01:00:44.699Z,12.35
2018-04-23T01:01:44.632Z,12.37
2018-04-23T01:02:44.699Z,12.39
2018-04-23T01:03:44.651Z,12.39
2018-04-23T01:04:44.643Z,12.36
2018-04-23T01:05:44.716Z,12.31
2018-04-23T01:06:44.719Z,12.25
2018-04-23T01:07:44.723Z,12.20
2018-04-23T01:08:44.649Z,12.16
2018-04-23T01:09:44.646Z,12.10
2018-04-23T01:10:44.646Z,12.03
2018-04-23T01:11:44.684Z,11.97
2018-04-23T01:12:44.640Z,11.89
2018-04-23T01:13:44.718Z,11.83
2018-04-23T01:14:44.717Z,11.82
2018-04-23T01:15:44.715Z,11.82
2018-04-23T01:16:44.679Z,11.83
2018-04-23T01:17:44.758Z,11.83
2018-04-23T01:18:44.631Z,11.82
2018-04-23T01:19:44.659Z,11.83
2018-04-23T01:20:44.761Z,11.87
2018-04-23T01:21:44.725Z,11.89
2018-04-23T01:22:44.698Z,11.89
2018-04-23T01:23:44.689Z,11.95
2018-04-23T01:24:44.625Z,12.01
2018-04-23T01:25:44.628Z,12.02
2018-04-23T01:26:44.684Z,12.06
2018-04-23T01:27:44.690Z,12.14
2018-04-23T01:28:44.632Z,12.31
2018-04-23T01:29:44.690Z,12.40
2018-04-23T01:30:44.727Z,12.47
2018-04-23T01:31:44.731Z,12.53
2018-04-23T01:32:44.649Z,12.54
2018-04-23T01:33:44.772Z,12.53
2018-04-23T01:34:44.727Z,12.53
2018-04-23T01:35:44.768Z,12.53
2018-04-23T01:36:44.649Z,12.51
2018-04-23T01:37:44.743Z,12.51
2018-04-23T01:38:44.692Z,12.53
2018-04-23T01:39:44.655Z,12.55
2018-04-23T01:40:44.708Z,12.54
2018-04-23T01:41:44.757Z,12.51
2018-04-23T01:42:44.772Z,12.54
2018-04-23T01:43:44.708Z,12.55
2018-04-23T01:44:44.673Z,12.57
2018-04-23T01:45:44.736Z,12.60
2018-04-23T01:46:44.714Z,12.61
2018-04-23T01:47:44.738Z,12.62
2018-04-23T01:48:44.768Z,12.65
2018-04-23T01:49:44.704Z,12.66
2018-04-23T01:50:44.708Z,12.65
2018-04-23T01:51:44.712Z,12.65
2018-04-23T01:52:44.709Z,12.68
2018-04-23T01:53:44.772Z,12.71
2018-04-23T01:54:44.732Z,12.73
2018-04-23T01:55:44.773Z,12.76
2018-04-23T01:56:44.702Z,12.77
2018-04-23T01:57:44.670Z,12.80
2018-04-23T01:58:44.757Z,12.82
2018-04-23T01:59:44.708Z,12.80
2018-04-23T02:00:44.774Z,12.77
2018-04-23T02:01:44.651Z,12.77
2018-04-23T02:02:44.652Z,12.77
2018-04-23T02:03:44.666Z,12.77
2018-04-23T02:04:44.734Z,12.79
2018-04-23T02:05:44.724Z,12.80
2018-04-23T02:06:44.624Z,12.83
2018-04-23T02:07:44.619Z,12.82
2018-04-23T02:08:44.648Z,12.84
2018-04-23T02:09:44.646Z,12.86
2018-04-23T02:10:44.737Z,12.87
2018-04-23T02:11:44.658Z,12.91
2018-04-23T02:12:44.659Z,12.92
2018-04-23T02:13:44.739Z,12.94
2018-04-23T02:14:44.751Z,12.94
2018-04-23T02:15:44.679Z,12.96
2018-04-23T02:16:44.755Z,12.96
2018-04-23T02:17:44.688Z,12.96
2018-04-23T02:18:44.757Z,12.98
2018-04-23T02:19:44.678Z,12.99
2018-04-23T02:20:44.645Z,13.00
2018-04-23T02:21:44.685Z,13.00
2018-04-23T02:22:44.685Z,12.99
2018-04-23T02:23:44.761Z,12.96
2018-04-23T02:24:44.699Z,12.95
2018-04-23T02:25:44.666Z,12.95
2018-04-23T02:26:44.684Z,12.92
2018-04-23T02:27:44.754Z,12.89
2018-04-23T02:28:44.730Z,12.87
2018-04-23T02:29:44.763Z,12.84
2018-04-23T02:30:44.705Z,12.86
2018-04-23T02:31:44.743Z,12.89
2018-04-23T02:32:44.845Z,12.89
2018-04-23T02:33:44.729Z,12.91
2018-04-23T02:34:44.773Z,12.92
2018-04-23T02:35:44.830Z,13.05
2018-04-23T02:36:44.769Z,13.28
2018-04-23T02:37:44.740Z,13.36
2018-04-23T02:38:44.688Z,13.39
2018-04-23T02:39:44.741Z,13.38
2018-04-23T02:40:44.771Z,13.40
2018-04-23T02:41:44.712Z,13.46
2018-04-23T02:42:44.797Z,13.51
2018-04-23T02:43:44.711Z,13.56
2018-04-23T02:44:44.754Z,13.57
2018-04-23T02:45:44.777Z,13.57
2018-04-23T02:46:44.755Z,13.57
2018-04-23T02:47:44.800Z,13.59
2018-04-23T02:48:44.713Z,13.57
2018-04-23T02:49:44.808Z,13.57
2018-04-23T02:50:44.705Z,13.54
2018-04-23T02:51:44.758Z,13.53
2018-04-23T02:52:44.792Z,13.51
2018-04-23T02:53:44.781Z,13.50
2018-04-23T02:54:44.779Z,13.50
2018-04-23T02:55:44.792Z,13.50
2018-04-23T02:56:44.823Z,13.51
2018-04-23T02:57:44.773Z,13.51
2018-04-23T02:58:44.784Z,13.49
2018-04-23T02:59:44.809Z,13.49
2018-04-23T03:00:44.812Z,13.46
2018-04-23T03:01:44.813Z,13.45
2018-04-23T03:02:44.731Z,13.43
2018-04-23T03:03:44.766Z,13.43
2018-04-23T03:04:44.821Z,13.42
2018-04-23T03:05:44.752Z,13.40
2018-04-23T03:06:44.759Z,13.40
2018-04-23T03:07:44.731Z,13.38
2018-04-23T03:08:44.811Z,13.38
2018-04-23T03:09:44.693Z,13.36
2018-04-23T03:10:44.796Z,13.35
2018-04-23T03:11:44.815Z,13.35
2018-04-23T03:12:44.757Z,13.35
2018-04-23T03:13:44.815Z,13.32
2018-04-23T03:14:44.758Z,13.32
2018-04-23T03:15:44.711Z,13.29
2018-04-23T03:16:44.757Z,13.28
2018-04-23T03:17:44.766Z,13.27
2018-04-23T03:18:44.792Z,13.24
2018-04-23T03:19:44.756Z,13.23
2018-04-23T03:20:44.838Z,13.21
2018-04-23T03:21:44.839Z,13.20
2018-04-23T03:22:44.823Z,13.18
2018-04-23T03:23:44.804Z,13.18
2018-04-23T03:24:44.703Z,13.18
2018-04-23T03:25:44.828Z,13.18
2018-04-23T03:26:44.815Z,13.18
2018-04-23T03:27:44.780Z,13.20
2018-04-23T03:28:44.724Z,13.20
2018-04-23T03:29:44.851Z,13.18
2018-04-23T03:30:44.823Z,13.17
2018-04-23T03:31:44.811Z,13.14
2018-04-23T03:32:44.834Z,13.14
2018-04-23T03:33:44.758Z,13.14
2018-04-23T03:34:44.828Z,13.16
2018-04-23T03:35:44.768Z,13.17
2018-04-23T03:36:44.731Z,13.17
2018-04-23T03:37:44.785Z,13.14
2018-04-23T03:38:44.817Z,13.14
2018-04-23T03:39:44.767Z,13.13
2018-04-23T03:40:44.808Z,13.10
2018-04-23T03:41:44.842Z,13.09
2018-04-23T03:42:44.809Z,13.06
2018-04-23T03:43:44.787Z,13.05
2018-04-23T03:44:44.815Z,13.05
2018-04-23T03:45:44.844Z,13.03
2018-04-23T03:46:44.733Z,13.00
2018-04-23T03:47:44.756Z,13.00
2018-04-23T03:48:44.788Z,12.99
2018-04-23T03:49:44.787Z,12.98
2018-04-23T03:50:44.718Z,12.96
2018-04-23T03:51:44.820Z,12.95
2018-04-23T03:52:44.843Z,12.95
2018-04-23T03:53:44.821Z,12.95
2018-04-23T03:54:44.820Z,12.94
2018-04-23T03:55:44.754Z,12.95
2018-04-23T03:56:44.751Z,12.94
2018-04-23T03:57:44.809Z,12.95
2018-04-23T03:58:44.827Z,12.95
2018-04-23T03:59:44.752Z,12.95
2018-04-23T04:00:44.825Z,12.94
2018-04-23T04:01:44.754Z,12.92
2018-04-23T04:02:44.752Z,12.91
2018-04-23T04:03:44.834Z,12.89
2018-04-23T04:04:44.833Z,12.91
2018-04-23T04:05:44.797Z,12.91
2018-04-23T04:06:44.731Z,12.92
2018-04-23T04:07:44.762Z,12.92
2018-04-23T04:08:44.766Z,12.92
2018-04-23T04:09:44.752Z,12.92
2018-04-23T04:10:44.838Z,12.92
2018-04-23T04:11:44.736Z,12.92
2018-04-23T04:12:44.831Z,12.89
2018-04-23T04:13:44.827Z,12.91
2018-04-23T04:14:44.748Z,12.86
2018-04-23T04:15:44.858Z,12.84
2018-04-23T04:16:44.799Z,12.80
2018-04-23T04:17:44.838Z,12.77
2018-04-23T04:18:44.836Z,12.75
2018-04-23T04:19:44.874Z,12.75
2018-04-23T04:20:44.750Z,12.72
2018-04-23T04:21:44.760Z,12.71
2018-04-23T04:22:44.806Z,12.69
2018-04-23T04:23:44.861Z,12.66
2018-04-23T04:24:44.929Z,12.65
2018-04-23T04:25:44.879Z,12.65
2018-04-23T04:26:44.872Z,12.66
2018-04-23T04:27:44.867Z,12.69
2018-04-23T04:28:44.840Z,12.68
2018-04-23T04:29:44.799Z,12.68
2018-04-23T04:30:44.784Z,12.66
2018-04-23T04:31:44.874Z,12.68
2018-04-23T04:32:44.856Z,12.69
2018-04-23T04:33:44.843Z,12.69
2018-04-23T04:34:44.831Z,12.71
2018-04-23T04:35:44.794Z,12.71
2018-04-23T04:36:44.720Z,12.71
2018-04-23T04:37:44.707Z,12.71
2018-04-23T04:38:44.801Z,12.75
2018-04-23T04:39:44.735Z,12.75
2018-04-23T04:40:44.802Z,12.79
2018-04-23T04:41:44.711Z,12.84
2018-04-23T04:42:44.719Z,12.84
2018-04-23T04:43:44.709Z,12.86
2018-04-23T04:44:44.801Z,12.91
2018-04-23T04:45:44.790Z,12.94
2018-04-23T04:46:44.845Z,12.95
2018-04-23T04:47:44.741Z,12.98
2018-04-23T04:48:44.845Z,12.99
2018-04-23T04:49:44.756Z,13.00
2018-04-23T04:50:44.799Z,13.00
2018-04-23T04:51:44.848Z,13.02
2018-04-23T04:52:44.812Z,13.05
2018-04-23T04:53:44.726Z,13.06
2018-04-23T04:54:44.850Z,13.06
2018-04-23T04:55:44.763Z,13.07
2018-04-23T04:56:44.843Z,13.10
2018-04-23T04:57:44.807Z,13.13
2018-04-23T04:58:44.820Z,13.14
2018-04-23T04:59:44.850Z,13.16
2018-04-23T05:00:44.807Z,13.18
2018-04-23T05:01:44.823Z,13.20
2018-04-23T05:02:44.789Z,13.18
2018-04-23T05:03:44.736Z,13.20
2018-04-23T05:04:44.862Z,13.20
2018-04-23T05:05:44.865Z,13.21
2018-04-23T05:06:44.904Z,13.24
2018-04-23T05:07:44.829Z,13.23
2018-04-23T05:08:44.792Z,13.23
2018-04-23T05:09:44.774Z,13.21
2018-04-23T05:10:44.808Z,13.21
2018-04-23T05:11:44.906Z,13.21
2018-04-23T05:12:44.904Z,13.21
2018-04-23T05:13:44.772Z,13.20
2018-04-23T05:14:44.792Z,13.21
2018-04-23T05:15:44.775Z,13.21
2018-04-23T05:16:44.777Z,13.21
2018-04-23T05:17:44.866Z,13.20
2018-04-23T05:18:44.746Z,13.21
2018-04-23T05:19:44.789Z,13.23
2018-04-23T05:20:44.800Z,13.24
2018-04-23T05:21:44.952Z,13.27
2018-04-23T05:22:44.837Z,13.27
2018-04-23T05:23:44.917Z,13.28
2018-04-23T05:24:44.781Z,13.28
2018-04-23T05:25:44.862Z,13.29
2018-04-23T05:26:44.860Z,13.32
2018-04-23T05:27:44.904Z,13.36
2018-04-23T05:28:44.877Z,13.36
2018-04-23T05:29:44.816Z,13.35
2018-04-23T05:30:44.877Z,13.36
2018-04-23T05:31:44.786Z,13.35
2018-04-23T05:32:44.790Z,13.35
2018-04-23T05:33:44.800Z,13.35
2018-04-23T05:34:44.889Z,13.34
2018-04-23T05:35:44.802Z,13.34
2018-04-23T05:36:44.802Z,13.35
2018-04-23T05:37:44.886Z,13.35
2018-04-23T05:38:44.880Z,13.36
2018-04-23T05:39:44.811Z,13.36
2018-04-23T05:40:44.873Z,13.36
2018-04-23T05:41:44.883Z,13.38
2018-04-23T05:42:44.791Z,13.38
2018-04-23T05:43:44.885Z,13.36
2018-04-23T05:44:44.806Z,13.39
2018-04-23T05:45:44.925Z,13.40
2018-04-23T05:46:44.893Z,13.42
2018-04-23T05:47:44.819Z,13.43
2018-04-23T05:48:44.892Z,13.43
2018-04-23T05:49:44.895Z,13.43
2018-04-23T05:50:44.827Z,13.46
2018-04-23T05:51:44.899Z,13.45
2018-04-23T05:52:44.890Z,13.46
2018-04-23T05:53:44.827Z,13.46
2018-04-23T05:54:44.911Z,13.46
2018-04-23T05:55:44.913Z,13.47
2018-04-23T05:56:44.935Z,13.49
2018-04-23T05:57:44.832Z,13.49
2018-04-23T05:58:44.901Z,13.50
2018-04-23T05:59:44.920Z,13.50
2018-04-23T06:00:44.925Z,13.50
2018-04-23T06:01:44.875Z,13.50
2018-04-23T06:02:44.826Z,13.53
2018-04-23T06:03:44.954Z,13.54
2018-04-23T06:04:44.901Z,13.56
2018-04-23T06:05:44.792Z,13.57
2018-04-23T06:06:44.890Z,13.59
2018-04-23T06:07:44.888Z,13.61
2018-04-23T06:08:44.826Z,13.61
2018-04-23T06:09:44.896Z,13.61
2018-04-23T06:10:44.896Z,13.61
2018-04-23T06:11:44.872Z,13.61
2018-04-23T06:12:44.784Z,13.61
2018-04-23T06:13:44.899Z,13.59
2018-04-23T06:14:44.901Z,13.54
2018-04-23T06:15:44.829Z,13.50
2018-04-23T06:16:44.946Z,13.50
2018-04-23T06:17:44.846Z,13.53
2018-04-23T06:18:44.826Z,13.56
2018-04-23T06:19:44.917Z,13.57
2018-04-23T06:20:44.929Z,13.57
2018-04-23T06:21:44.815Z,13.59
2018-04-23T06:22:44.836Z,13.59
2018-04-23T06:23:44.975Z,13.62
2018-04-23T06:24:44.917Z,13.64
2018-04-23T06:25:44.915Z,13.65
2018-04-23T06:26:44.843Z,13.65
2018-04-23T06:27:44.916Z,13.64
2018-04-23T06:28:44.843Z,13.66
2018-04-23T06:29:44.845Z,13.69
2018-04-23T06:30:44.918Z,13.69
2018-04-23T06:31:44.848Z,13.69
2018-04-23T06:32:44.848Z,13.70
2018-04-23T06:33:44.892Z,13.72
2018-04-23T06:34:44.850Z,13.73
2018-04-23T06:35:44.843Z,13.73
2018-04-23T06:36:44.883Z,13.75
2018-04-23T06:37:44.893Z,13.76
2018-04-23T06:38:44.956Z,13.76
2018-04-23T06:39:44.917Z,13.75
2018-04-23T06:40:44.943Z,13.77
2018-04-23T06:41:44.951Z,13.76
2018-04-23T06:42:44.829Z,13.80
2018-04-23T06:43:44.896Z,13.83
2018-04-23T06:44:44.920Z,13.84
2018-04-23T06:45:44.896Z,13.88
2018-04-23T06:46:44.906Z,13.93
2018-04-23T06:47:44.953Z,13.98
2018-04-23T06:48:44.845Z,14.00
2018-04-23T06:49:44.934Z,13.99
2018-04-23T06:50:44.835Z,13.99
2018-04-23T06:51:44.928Z,13.96
2018-04-23T06:52:44.897Z,13.98
2018-04-23T06:53:44.897Z,13.98
2018-04-23T06:54:44.865Z,14.00
2018-04-23T06:55:44.961Z,14.04
2018-04-23T06:56:44.903Z,14.09
2018-04-23T06:57:44.968Z,14.11
2018-04-23T06:58:44.907Z,14.18
2018-04-23T06:59:44.912Z,14.25
2018-04-23T07:00:44.840Z,14.35
2018-04-23T07:01:44.991Z,14.42
2018-04-23T07:02:44.907Z,14.46
2018-04-23T07:03:44.960Z,14.40
2018-04-23T07:04:44.930Z,14.46
2018-04-23T07:05:44.913Z,14.57
2018-04-23T07:06:44.901Z,14.65
2018-04-23T07:07:44.939Z,14.73
2018-04-23T07:08:44.965Z,14.80
2018-04-23T07:09:44.979Z,14.87
2018-04-23T07:10:44.943Z,14.96
2018-04-23T07:11:44.977Z,15.04
2018-04-23T07:12:44.846Z,15.03
2018-04-23T07:13:45.000Z,15.02
2018-04-23T07:14:44.923Z,15.00
2018-04-23T07:15:44.942Z,15.03
2018-04-23T07:16:44.851Z,15.07
2018-04-23T07:17:44.904Z,15.10
2018-04-23T07:18:44.852Z,15.19
2018-04-23T07:19:44.937Z,15.24
2018-04-23T07:20:44.866Z,15.28
2018-04-23T07:21:44.939Z,15.22
2018-04-23T07:22:44.942Z,15.25
2018-04-23T07:23:44.865Z,15.26
2018-04-23T07:24:44.876Z,15.26
2018-04-23T07:25:44.874Z,15.24
2018-04-23T07:26:44.857Z,15.18
2018-04-23T07:27:44.946Z,15.11
2018-04-23T07:28:44.945Z,15.11
2018-04-23T07:29:44.860Z,15.13
2018-04-23T07:30:44.919Z,15.21
2018-04-23T07:31:44.901Z,15.21
2018-04-23T07:32:44.948Z,15.32
2018-04-23T07:33:44.970Z,15.40
2018-04-23T07:34:44.897Z,15.40
2018-04-23T07:35:44.980Z,15.39
2018-04-23T07:36:44.920Z,15.35
2018-04-23T07:37:44.957Z,15.39
2018-04-23T07:38:44.981Z,15.44
2018-04-23T07:39:44.964Z,15.47
2018-04-23T07:40:44.999Z,15.53
2018-04-23T07:41:44.988Z,15.53
2018-04-23T07:42:44.984Z,15.64
2018-04-23T07:43:44.961Z,15.72
2018-04-23T07:44:45.031Z,15.79
2018-04-23T07:45:44.989Z,15.88
2018-04-23T07:46:44.888Z,15.99
2018-04-23T07:47:44.965Z,16.09
2018-04-23T07:48:44.951Z,16.06
2018-04-23T07:49:44.890Z,16.13
2018-04-23T07:50:44.963Z,16.22
2018-04-23T07:51:45.042Z,16.38
2018-04-23T07:52:44.975Z,16.43
2018-04-23T07:53:45.035Z,16.48
2018-04-23T07:54:44.872Z,16.55
2018-04-23T07:55:44.968Z,16.58
2018-04-23T07:56:45.001Z,16.57
2018-04-23T07:57:45.007Z,16.59
2018-04-23T07:58:44.999Z,16.59
2018-04-23T07:59:44.881Z,16.68
2018-04-23T08:00:44.936Z,16.80
2018-04-23T08:01:44.996Z,16.85
2018-04-23T08:02:44.975Z,16.80
2018-04-23T08:03:45.011Z,16.81
2018-04-23T08:04:44.954Z,16.74
2018-04-23T08:05:45.007Z,16.69
2018-04-23T08:06:44.944Z,16.66
2018-04-23T08:07:44.899Z,16.74
2018-04-23T08:08:44.947Z,16.76
2018-04-23T08:09:45.015Z,16.65
2018-04-23T08:10:45.019Z,16.58
2018-04-23T08:11:45.012Z,16.55
2018-04-23T08:12:44.979Z,16.52
2018-04-23T08:13:44.947Z,16.58
2018-04-23T08:14:44.957Z,16.57
2018-04-23T08:15:44.987Z,16.61
2018-04-23T08:16:44.961Z,16.66
2018-04-23T08:17:44.908Z,16.59
2018-04-23T08:18:44.951Z,16.66
2018-04-23T08:19:45.065Z,16.74
2018-04-23T08:20:44.988Z,16.81
2018-04-23T08:21:44.947Z,16.88
2018-04-23T08:22:45.015Z,16.90
2018-04-23T08:23:44.918Z,16.87
2018-04-23T08:24:45.011Z,16.76
2018-04-23T08:25:45.011Z,16.77
2018-04-23T08:26:45.014Z,16.79
2018-04-23T08:27:44.984Z,16.80
2018-04-23T08:28:45.012Z,16.80
2018-04-23T08:29:45.028Z,16.74
2018-04-23T08:30:44.988Z,16.76
2018-04-23T08:31:45.078Z,16.80
2018-04-23T08:32:44.898Z,16.79
2018-04-23T08:33:44.997Z,16.79
2018-04-23T08:34:44.912Z,16.79
2018-04-23T08:35:44.990Z,16.85
2018-04-23T08:36:44.920Z,16.83
2018-04-23T08:37:44.900Z,16.77
2018-04-23T08:38:44.956Z,16.73
2018-04-23T08:39:44.985Z,16.66
2018-04-23T08:40:44.918Z,16.66
2018-04-23T08:41:44.870Z,16.66
2018-04-23T08:42:44.916Z,16.68
2018-04-23T08:43:44.933Z,16.72
2018-04-23T08:44:44.992Z,16.79
2018-04-23T08:45:44.935Z,16.83
2018-04-23T08:46:45.006Z,16.88
2018-04-23T08:47:44.931Z,16.92
2018-04-23T08:48:45.008Z,16.90
2018-04-23T08:49:45.004Z,16.88
2018-04-23T08:50:44.951Z,16.95
2018-04-23T08:51:44.948Z,16.98
2018-04-23T08:52:44.940Z,17.09
2018-04-23T08:53:44.937Z,17.14
2018-04-23T08:54:44.942Z,17.26
2018-04-23T08:55:45.116Z,17.40
2018-04-23T08:56:45.068Z,17.61
2018-04-23T08:57:45.005Z,17.69
2018-04-23T08:58:44.931Z,17.83
2018-04-23T08:59:45.038Z,17.76
2018-04-23T09:00:44.951Z,17.73
2018-04-23T09:01:45.012Z,17.73
2018-04-23T09:02:45.041Z,17.71
2018-04-23T09:03:45.036Z,17.75
2018-04-23T09:04:45.016Z,17.72
2018-04-23T09:05:44.973Z,17.69
2018-04-23T09:06:45.051Z,17.62
2018-04-23T09:07:45.051Z,17.69
2018-04-23T09:08:45.015Z,17.69
2018-04-23T09:09:45.028Z,17.71
2018-04-23T09:10:44.941Z,17.84
2018-04-23T09:11:44.985Z,17.88
2018-04-23T09:12:44.990Z,17.99
2018-04-23T09:13:45.017Z,18.12
2018-04-23T09:14:45.038Z,18.24
2018-04-23T09:15:44.951Z,18.21
2018-04-23T09:16:44.950Z,18.12
2018-04-23T09:17:45.028Z,18.10
2018-04-23T09:18:44.889Z,17.89
2018-04-23T09:19:44.962Z,17.87
2018-04-23T09:20:44.921Z,17.85
2018-04-23T09:21:44.964Z,17.80
2018-04-23T09:22:44.956Z,17.89
2018-04-23T09:23:44.930Z,18.20
2018-04-23T09:24:44.945Z,18.40
2018-04-23T09:25:45.050Z,18.47
2018-04-23T09:26:45.063Z,18.32
2018-04-23T09:27:45.025Z,18.25
2018-04-23T09:28:45.057Z,18.23
2018-04-23T09:29:45.085Z,18.18
2018-04-23T09:30:45.010Z,18.16
2018-04-23T09:31:45.025Z,18.09
2018-04-23T09:32:44.966Z,18.03
2018-04-23T09:33:45.058Z,17.84
2018-04-23T09:34:45.060Z,17.65
2018-04-23T09:35:44.941Z,17.51
2018-04-23T09:36:45.075Z,17.42
2018-04-23T09:37:45.073Z,17.29
2018-04-23T09:38:44.952Z,17.22
2018-04-23T09:40:45.074Z,17.06
2018-04-23T09:41:44.942Z,17.02
2018-04-23T09:42:45.077Z,17.02
2018-04-23T09:43:45.004Z,16.99
2018-04-23T09:44:45.039Z,17.05
2018-04-23T09:45:45.106Z,17.13
2018-04-23T09:46:45.037Z,17.24
2018-04-23T09:47:45.038Z,17.36
2018-04-23T09:48:45.041Z,17.47
2018-04-23T09:49:44.962Z,17.61
2018-04-23T09:50:45.008Z,17.71
2018-04-23T09:51:45.070Z,17.89
2018-04-23T09:52:45.010Z,17.88
2018-04-23T09:53:45.051Z,17.98
2018-04-23T09:54:45.024Z,18.03
2018-04-23T09:55:44.979Z,17.92
2018-04-23T09:56:45.045Z,17.91
2018-04-23T09:57:45.047Z,17.84
2018-04-23T09:58:44.981Z,17.80
2018-04-23T09:59:44.987Z,17.72
2018-04-23T10:00:44.979Z,17.61
2018-04-23T10:01:45.018Z,17.51
2018-04-23T10:02:45.060Z,17.40
2018-04-23T10:03:44.989Z,17.22
2018-04-23T10:04:45.055Z,17.09
2018-04-23T10:05:45.019Z,17.05
2018-04-23T10:06:44.992Z,17.05
2018-04-23T10:07:45.085Z,17.06
2018-04-23T10:08:44.992Z,17.13
2018-04-23T10:09:45.059Z,17.16
2018-04-23T10:10:44.958Z,17.13
2018-04-23T10:11:44.991Z,17.20
2018-04-23T10:12:44.993Z,17.31
2018-04-23T10:13:45.096Z,17.40
2018-04-23T10:14:45.066Z,17.50
2018-04-23T10:15:45.091Z,17.33
2018-04-23T10:16:45.093Z,17.21
2018-04-23T10:17:45.064Z,17.25
2018-04-23T10:18:45.042Z,17.33
2018-04-23T10:19:44.966Z,17.47
2018-04-23T10:20:45.022Z,17.80
2018-04-23T10:21:45.026Z,18.14
2018-04-23T10:22:45.078Z,18.27
2018-04-23T10:23:45.140Z,18.31
2018-04-23T10:24:45.036Z,18.40
2018-04-23T10:25:45.040Z,18.41
2018-04-23T10:26:44.967Z,18.28
2018-04-23T10:27:44.983Z,18.38
2018-04-23T10:28:44.987Z,18.47
2018-04-23T10:29:45.090Z,18.35
2018-04-23T10:30:45.101Z,18.40
2018-04-23T10:31:45.074Z,18.55
2018-04-23T10:32:45.110Z,18.44
2018-04-23T10:33:45.043Z,18.23
2018-04-23T10:34:44.991Z,18.51
2018-04-23T10:35:45.036Z,18.24
2018-04-23T10:36:45.078Z,18.20
2018-04-23T10:37:45.075Z,18.29
2018-04-23T10:38:45.073Z,18.27
2018-04-23T10:39:44.993Z,18.18
2018-04-23T10:40:44.991Z,18.17
2018-04-23T10:41:44.981Z,18.14
2018-04-23T10:42:45.059Z,17.98
2018-04-23T10:43:44.997Z,18.09
2018-04-23T10:44:45.079Z,18.18
2018-04-23T10:45:45.029Z,18.31
2018-04-23T10:46:45.077Z,18.48
2018-04-23T10:47:44.986Z,18.62
2018-04-23T10:48:45.013Z,18.73
2018-04-23T10:49:45.072Z,18.73
2018-04-23T10:50:45.015Z,18.76
2018-04-23T10:51:45.033Z,18.83
2018-04-23T10:52:45.065Z,19.05
2018-04-23T10:53:44.953Z,18.95
2018-04-23T10:54:45.031Z,18.58
2018-04-23T10:55:45.099Z,18.46
2018-04-23T10:56:44.985Z,18.36
2018-04-23T10:57:45.062Z,18.38
2018-04-23T10:58:45.124Z,18.38
2018-04-23T10:59:45.105Z,18.54
2018-04-23T11:00:45.120Z,18.80
2018-04-23T11:01:45.045Z,18.95
2018-04-23T11:02:45.065Z,19.05
2018-04-23T11:03:45.027Z,18.99
2018-04-23T11:04:45.116Z,18.94
2018-04-23T11:05:45.107Z,18.92
2018-04-23T11:06:45.026Z,18.94
2018-04-23T11:07:45.088Z,18.87
2018-04-23T11:08:45.023Z,18.55
2018-04-23T11:09:45.123Z,18.25
2018-04-23T11:10:45.034Z,18.38
2018-04-23T11:11:45.094Z,18.47
2018-04-23T11:12:45.025Z,18.38
2018-04-23T11:13:45.111Z,18.17
2018-04-23T11:14:45.096Z,18.13
2018-04-23T11:15:45.091Z,18.32
2018-04-23T11:16:45.024Z,18.35
2018-04-23T11:17:45.094Z,18.29
2018-04-23T11:18:45.036Z,18.28
2018-04-23T11:19:44.985Z,18.46
2018-04-23T11:20:45.031Z,18.59
2018-04-23T11:21:45.006Z,18.70
2018-04-23T11:22:45.053Z,18.86
2018-04-23T11:23:45.093Z,18.91
2018-04-23T11:24:45.149Z,19.16
2018-04-23T11:25:45.093Z,19.32
2018-04-23T11:26:45.008Z,19.33
2018-04-23T11:27:45.007Z,19.32
2018-04-23T11:28:45.138Z,19.39
2018-04-23T11:29:45.136Z,19.58
2018-04-23T11:30:45.146Z,19.74
2018-04-23T11:31:45.140Z,19.76
2018-04-23T11:32:45.123Z,19.66
2018-04-23T11:33:45.126Z,19.76
2018-04-23T11:34:45.108Z,19.83
2018-04-23T11:35:45.136Z,19.70
2018-04-23T11:36:45.143Z,19.60
2018-04-23T11:37:45.078Z,19.36
2018-04-23T11:38:45.073Z,18.99
2018-04-23T11:39:45.134Z,19.05
2018-04-23T11:40:45.149Z,19.01
2018-04-23T11:41:45.149Z,18.98
2018-04-23T11:42:45.183Z,18.94
2018-04-23T11:43:45.088Z,19.05
2018-04-23T11:44:45.082Z,19.38
2018-04-23T11:45:45.079Z,19.50
2018-04-23T11:46:45.147Z,19.50
2018-04-23T11:47:45.140Z,19.28
2018-04-23T11:48:45.160Z,19.31
2018-04-23T11:49:45.152Z,19.35
2018-04-23T11:50:45.076Z,19.60
2018-04-23T11:51:45.076Z,19.72
2018-04-23T11:52:45.015Z,19.77
2018-04-23T11:53:45.096Z,19.92
2018-04-23T11:54:45.153Z,20.24
2018-04-23T11:55:45.149Z,20.35
2018-04-23T11:56:45.027Z,20.32
2018-04-23T11:57:45.120Z,20.34
2018-04-23T11:58:45.150Z,20.24
2018-04-23T11:59:45.028Z,20.35
2018-04-23T12:00:45.154Z,20.34
2018-04-23T12:01:45.043Z,20.27
2018-04-23T12:02:45.090Z,20.41
2018-04-23T12:03:45.037Z,20.43
2018-04-23T12:04:45.101Z,20.60
2018-04-23T12:05:45.151Z,20.64
2018-04-23T12:06:45.049Z,20.66
2018-04-23T12:07:45.147Z,20.79
2018-04-23T12:08:45.101Z,20.73
2018-04-23T12:09:45.143Z,20.47
2018-04-23T12:10:45.037Z,20.36
2018-04-23T12:11:45.035Z,20.45
2018-04-23T12:12:45.103Z,20.56
2018-04-23T12:13:45.107Z,20.57
2018-04-23T12:14:45.035Z,20.65
2018-04-23T12:15:45.073Z,20.56
2018-04-23T12:16:45.117Z,20.66
2018-04-23T12:17:45.126Z,20.35
2018-04-23T12:18:45.133Z,20.43
2018-04-23T12:19:45.021Z,20.38
2018-04-23T12:20:45.117Z,20.32
2018-04-23T12:21:45.156Z,20.25
2018-04-23T12:22:45.135Z,20.03
2018-04-23T12:23:45.086Z,20.10
2018-04-23T12:24:45.067Z,19.94
2018-04-23T12:25:45.004Z,20.14
2018-04-23T12:26:45.145Z,20.31
2018-04-23T12:27:45.141Z,20.53
2018-04-23T12:28:45.183Z,20.64
2018-04-23T12:29:45.122Z,20.69
2018-04-23T12:30:45.161Z,20.88
2018-04-23T12:31:45.114Z,21.09
2018-04-23T12:32:45.043Z,21.28
2018-04-23T12:33:45.105Z,21.39
2018-04-23T12:34:45.113Z,21.29
2018-04-23T12:35:45.159Z,21.28
2018-04-23T12:36:45.160Z,21.06
2018-04-23T12:37:45.111Z,20.95
2018-04-23T12:38:45.125Z,21.13
2018-04-23T12:39:45.107Z,20.94
2018-04-23T12:40:45.188Z,20.66
2018-04-23T12:41:45.178Z,20.70
2018-04-23T12:42:45.169Z,20.65
2018-04-23T12:43:45.149Z,20.52
2018-04-23T12:44:45.055Z,20.52
2018-04-23T12:45:45.114Z,20.52
2018-04-23T12:46:45.125Z,20.70
2018-04-23T12:47:45.173Z,20.95
2018-04-23T12:48:45.183Z,21.16
2018-04-23T12:49:45.181Z,21.31
2018-04-23T12:50:45.138Z,21.28
2018-04-23T12:51:45.183Z,21.38
2018-04-23T12:53:45.175Z,21.51
2018-04-23T12:54:45.138Z,21.43